Time;durP1;ratioP1;P1;durP2;ratioP2;P2;SDS_P1;SDS_P2;PMS_P1;PMS_P2;Temp;Humidity;BMP_temperature;BMP_pressure;BME280_temperature;BME280_humidity;BME280_pressure;Samples;Min_cycle;Max_cycle;Signal;HPM_P1;HPM_P2
2022/05/21 00:02:23;;;;;;;13.32;4.50;;;11.60;99.90;;;;;;5077674;28;20052;-81
2022/05/21 00:04:49;;;;;;;7.95;4.45;;;11.50;99.90;;;;;;5060826;28;20086;-81
2022/05/21 00:07:15;;;;;;;11.65;4.00;;;11.50;99.90;;;;;;5077552;28;20048;-81
2022/05/21 00:09:41;;;;;;;8.35;3.97;;;11.50;99.90;;;;;;5077527;28;20047;-81
2022/05/21 00:12:07;;;;;;;10.70;5.03;;;11.50;99.90;;;;;;5061201;28;20052;-81
2022/05/21 00:14:37;;;;;;;12.70;5.00;;;11.50;99.90;;;;;;5060876;28;20136;-81
2022/05/21 00:17:03;;;;;;;11.77;5.10;;;11.50;99.90;;;;;;5060071;28;20077;-81
2022/05/21 00:19:28;;;;;;;11.88;4.85;;;11.50;99.90;;;;;;5060270;28;20127;-81
2022/05/21 00:21:54;;;;;;;9.45;5.03;;;11.50;99.90;;;;;;5060353;28;20131;-81
2022/05/21 00:24:20;;;;;;;9.93;5.38;;;11.40;99.90;;;;;;5077071;28;20127;-81
2022/05/21 00:26:45;;;;;;;8.98;4.72;;;11.40;99.90;;;;;;5060659;28;20055;-81
2022/05/21 00:29:11;;;;;;;10.75;5.35;;;11.40;99.90;;;;;;5077082;28;20040;-81
2022/05/21 00:31:36;;;;;;;10.73;5.13;;;11.30;99.90;;;;;;5060322;28;20538;-81
2022/05/21 00:34:02;;;;;;;12.05;5.47;;;11.30;99.90;;;;;;5060200;28;20123;-81
2022/05/21 00:36:29;;;;;;;12.48;6.13;;;11.30;99.90;;;;;;5060745;28;20047;-81
2022/05/21 00:38:55;;;;;;;14.50;7.32;;;11.30;99.90;;;;;;5076803;28;20503;-81
2022/05/21 00:41:21;;;;;;;17.00;8.30;;;11.30;99.90;;;;;;5076606;28;20512;-81
2022/05/21 00:43:56;;;;;;;15.80;9.27;;;11.40;99.90;;;;;;5060084;28;20055;-81
2022/05/21 00:46:24;;;;;;;17.33;9.75;;;11.30;99.90;;;;;;5060278;28;20127;-81
2022/05/21 00:49:13;;;;;;;18.05;11.40;;;11.40;99.90;;;;;;5076797;28;20046;-81
2022/05/21 00:51:50;;;;;;;20.73;12.18;;;11.40;99.90;;;;;;5076806;28;20047;-81
2022/05/21 00:54:17;;;;;;;20.85;13.38;;;11.40;99.90;;;;;;5060203;28;20052;-81
2022/05/21 00:56:57;;;;;;;20.67;14.00;;;11.40;99.90;;;;;;5059913;28;20048;-81
2022/05/21 01:02:11;;;;;;;25.55;15.02;;;11.50;99.90;;;;;;5076871;28;20048;-81
2022/05/21 01:04:38;;;;;;;25.95;17.02;;;11.50;99.90;;;;;;5059616;28;20085;-81
2022/05/21 01:07:06;;;;;;;28.05;16.75;;;11.50;99.90;;;;;;5076681;28;20420;-81
2022/05/21 01:09:33;;;;;;;29.80;17.35;;;11.40;99.90;;;;;;5076248;28;20048;-81
2022/05/21 01:12:01;;;;;;;28.42;16.73;;;11.40;99.90;;;;;;5059626;28;20546;-80
2022/05/21 01:14:28;;;;;;;26.55;18.73;;;11.50;99.90;;;;;;5076195;28;20094;-80
2022/05/21 01:16:54;;;;;;;35.00;20.83;;;11.50;99.90;;;;;;5059594;28;20083;-80
2022/05/21 01:19:20;;;;;;;29.13;19.92;;;11.50;99.90;;;;;;5059648;28;20115;-80
2022/05/21 01:21:45;;;;;;;31.58;19.58;;;11.50;99.90;;;;;;5059412;28;20044;-80
2022/05/21 01:24:12;;;;;;;33.17;21.40;;;11.60;99.90;;;;;;5059749;28;20044;-80
2022/05/21 01:26:39;;;;;;;30.58;21.75;;;11.60;99.90;;;;;;5059686;28;20519;-80
2022/05/21 01:29:11;;;;;;;31.73;21.88;;;11.60;99.90;;;;;;5076080;28;20048;-80
2022/05/21 01:31:37;;;;;;;29.23;21.90;;;11.70;99.90;;;;;;5076034;28;20063;-80
2022/05/21 01:34:04;;;;;;;40.35;23.95;;;11.70;99.90;;;;;;5059688;28;20069;-80
2022/05/21 01:36:30;;;;;;;30.48;23.38;;;11.70;99.90;;;;;;5075916;28;20411;-80
2022/05/21 01:38:56;;;;;;;32.88;22.42;;;11.70;99.90;;;;;;5076038;28;20399;-80
2022/05/21 01:41:22;;;;;;;36.17;23.08;;;11.80;99.90;;;;;;5076270;28;20567;-80
2022/05/21 01:46:31;;;;;;;39.78;24.75;;;11.80;99.90;;;;;;5075884;28;20083;-81
2022/05/21 01:48:57;;;;;;;34.20;23.48;;;11.90;99.90;;;;;;5059196;28;20083;-81
2022/05/21 01:51:23;;;;;;;37.70;24.92;;;11.90;99.90;;;;;;5059221;28;20135;-81
2022/05/21 01:53:48;;;;;;;32.97;23.83;;;11.90;99.90;;;;;;5058943;28;20047;-81
2022/05/21 01:56:15;;;;;;;36.80;23.38;;;12.00;99.90;;;;;;5059053;28;20047;-81
2022/05/21 01:58:42;;;;;;;37.58;24.35;;;12.00;99.90;;;;;;5058963;28;20508;-81
2022/05/21 02:01:08;;;;;;;32.55;23.33;;;12.10;99.90;;;;;;5059317;28;20419;-81
2022/05/21 02:03:34;;;;;;;35.28;24.10;;;12.10;99.90;;;;;;5075621;28;20169;-81
2022/05/21 02:06:00;;;;;;;34.33;21.92;;;12.10;99.90;;;;;;5059290;28;20040;-81
2022/05/21 02:08:25;;;;;;;32.08;22.20;;;12.10;99.90;;;;;;5058962;28;20127;-81
2022/05/21 02:10:52;;;;;;;34.80;23.33;;;12.10;99.90;;;;;;5059029;28;20109;-80
2022/05/21 02:13:25;;;;;;;39.05;24.83;;;12.10;99.90;;;;;;5075757;28;20098;-80
2022/05/21 02:15:52;;;;;;;32.95;22.95;;;12.20;99.90;;;;;;5076155;28;20047;-80
2022/05/21 02:18:18;;;;;;;35.17;23.73;;;12.10;99.90;;;;;;5058847;28;20055;-80
2022/05/21 02:20:46;;;;;;;40.35;26.20;;;12.20;99.90;;;;;;5058778;28;20411;-80
2022/05/21 02:23:12;;;;;;;39.00;26.17;;;12.20;99.90;;;;;;5075355;28;20044;-80
2022/05/21 02:25:38;;;;;;;34.63;25.00;;;12.20;99.90;;;;;;5058649;28;20055;-80
2022/05/21 02:28:04;;;;;;;38.63;26.55;;;12.20;99.90;;;;;;5058904;28;20048;-80
2022/05/21 02:30:30;;;;;;;39.33;27.17;;;12.20;99.90;;;;;;5075433;28;20097;-80
2022/05/21 02:32:55;;;;;;;41.60;26.30;;;12.20;99.90;;;;;;5058528;28;20464;-80
2022/05/21 02:35:21;;;;;;;41.22;26.38;;;12.20;99.90;;;;;;5075535;28;20040;-80
2022/05/21 02:40:30;;;;;;;34.28;25.70;;;12.30;99.90;;;;;;5075448;28;20044;-80
2022/05/21 02:42:56;;;;;;;40.38;28.23;;;12.30;99.90;;;;;;5062293;28;20415;-80
2022/05/21 02:45:25;;;;;;;39.70;25.88;;;12.30;99.90;;;;;;5079011;28;20073;-80
2022/05/21 02:47:52;;;;;;;42.10;27.50;;;12.30;99.90;;;;;;5079019;28;20059;-80
2022/05/21 02:50:24;;;;;;;34.20;25.92;;;12.30;99.90;;;;;;5062346;28;20523;-80
2022/05/21 02:52:50;;;;;;;38.65;26.92;;;12.40;99.90;;;;;;5078905;28;20555;-80
2022/05/21 02:55:17;;;;;;;45.38;26.30;;;12.30;99.90;;;;;;5062156;28;20076;-80
2022/05/21 02:57:44;;;;;;;37.83;24.45;;;12.30;99.90;;;;;;5062585;28;20126;-80
2022/05/21 03:00:19;;;;;;;35.80;23.73;;;12.40;99.90;;;;;;5062383;28;20090;-80
2022/05/21 03:02:45;;;;;;;36.53;24.17;;;12.40;99.90;;;;;;5062277;28;20085;-80
2022/05/21 03:05:11;;;;;;;35.65;23.83;;;12.50;99.90;;;;;;5061965;28;20055;-80
2022/05/21 03:07:43;;;;;;;35.33;23.95;;;12.40;99.90;;;;;;5062467;28;20547;-80
2022/05/21 03:10:22;;;;;;;35.22;23.90;;;12.50;99.90;;;;;;5078481;28;20048;-80
2022/05/21 03:12:57;;;;;;;33.33;22.75;;;12.50;99.90;;;;;;5061860;28;20047;-80
2022/05/21 03:15:28;;;;;;;36.00;22.40;;;12.50;99.90;;;;;;5061699;28;20050;-80
2022/05/21 03:17:54;;;;;;;37.47;22.35;;;12.50;99.90;;;;;;5062393;28;20055;-80
2022/05/21 03:20:21;;;;;;;34.17;21.23;;;12.50;99.90;;;;;;5061770;28;20044;-80
2022/05/21 03:22:48;;;;;;;31.83;20.23;;;12.50;99.90;;;;;;5061745;28;20054;-80
2022/05/21 03:25:14;;;;;;;33.05;21.88;;;12.60;99.90;;;;;;5078659;28;20052;-80
2022/05/21 03:27:40;;;;;;;34.15;22.27;;;12.60;99.90;;;;;;5061413;28;20047;-80
2022/05/21 03:30:08;;;;;;;35.00;21.38;;;12.60;99.90;;;;;;5077821;28;20048;-80
2022/05/21 03:32:34;;;;;;;33.88;19.23;;;12.60;99.90;;;;;;5061478;28;20048;-80
2022/05/21 03:35:00;;;;;;;32.03;19.88;;;12.60;99.90;;;;;;5061560;28;20043;-80
2022/05/21 03:37:25;;;;;;;32.55;18.88;;;12.70;99.90;;;;;;5061332;28;20071;-80
2022/05/21 03:39:51;;;;;;;45.03;21.83;;;12.70;99.90;;;;;;5061500;28;20059;-80
2022/05/21 03:42:17;;;;;;;30.67;20.35;;;12.70;99.90;;;;;;5061616;28;20062;-80
2022/05/21 03:44:43;;;;;;;30.45;18.45;;;12.70;99.90;;;;;;5061580;28;20097;-80
2022/05/21 03:47:09;;;;;;;37.15;19.92;;;12.70;99.90;;;;;;5061168;28;20040;-80
2022/05/21 03:49:34;;;;;;;32.80;19.83;;;12.80;99.90;;;;;;5060944;28;20081;-80
2022/05/21 03:52:01;;;;;;;34.17;20.20;;;12.80;99.90;;;;;;5077931;28;20036;-80
2022/05/21 03:54:26;;;;;;;36.08;18.08;;;12.80;99.90;;;;;;5078036;28;20069;-80
2022/05/21 03:56:53;;;;;;;30.98;15.65;;;12.80;99.90;;;;;;5061323;28;20521;-80
2022/05/21 03:59:19;;;;;;;30.90;12.60;;;12.80;99.90;;;;;;5078051;28;20180;-80
2022/05/21 04:01:45;;;;;;;24.40;10.05;;;12.80;99.90;;;;;;5077817;28;20500;-80
2022/05/21 04:04:11;;;;;;;25.05;7.88;;;12.90;99.90;;;;;;5077650;28;20055;-80
2022/05/21 04:06:37;;;;;;;21.98;6.65;;;12.90;99.90;;;;;;5061109;28;20052;-80
2022/05/21 04:09:03;;;;;;;23.27;6.55;;;12.90;99.90;;;;;;5060856;28;20075;-80
2022/05/21 04:11:29;;;;;;;20.75;5.80;;;13.00;99.90;;;;;;5077456;28;20127;-80
2022/05/21 04:13:55;;;;;;;21.73;5.85;;;13.00;99.90;;;;;;5060767;28;20123;-80
2022/05/21 04:16:20;;;;;;;28.33;5.85;;;13.00;99.90;;;;;;5077456;28;20040;-80
2022/05/21 04:18:46;;;;;;;16.40;4.53;;;13.00;99.90;;;;;;5077804;28;20500;-80
2022/05/21 04:21:11;;;;;;;21.75;5.00;;;13.00;99.90;;;;;;5077326;28;20036;-80
2022/05/21 04:23:37;;;;;;;22.85;4.82;;;13.00;99.90;;;;;;5060838;28;20054;-80
2022/05/21 04:26:03;;;;;;;22.65;5.15;;;13.00;99.90;;;;;;5077619;28;20050;-80
2022/05/21 04:28:29;;;;;;;22.63;5.10;;;13.00;99.90;;;;;;5077319;28;20492;-80
2022/05/21 04:30:55;;;;;;;19.88;4.22;;;13.00;99.90;;;;;;5060563;28;20048;-80
2022/05/21 04:33:20;;;;;;;23.40;4.90;;;13.10;99.90;;;;;;5077094;28;20072;-80
2022/05/21 04:38:33;;;;;;;19.45;4.40;;;13.10;99.90;;;;;;5077072;28;20127;-80
2022/05/21 04:40:59;;;;;;;22.27;4.85;;;13.10;99.90;;;;;;5060169;28;20132;-80
2022/05/21 04:43:24;;;;;;;21.20;4.22;;;13.10;99.90;;;;;;5076751;28;20131;-80
2022/05/21 04:45:50;;;;;;;17.88;4.53;;;13.20;99.90;;;;;;5076715;28;20052;-80
2022/05/21 04:48:15;;;;;;;19.23;4.63;;;13.20;99.90;;;;;;5076785;28;20043;-80
2022/05/21 04:50:41;;;;;;;18.67;4.40;;;13.10;99.90;;;;;;5060112;28;20055;-80
2022/05/21 04:53:07;;;;;;;22.40;4.72;;;13.10;99.90;;;;;;5059992;28;20415;-80
2022/05/21 04:55:33;;;;;;;17.80;3.67;;;13.20;99.90;;;;;;5076797;28;20567;-80
2022/05/21 04:57:59;;;;;;;20.48;4.32;;;13.20;99.90;;;;;;5060217;28;20082;-80
2022/05/21 05:00:25;;;;;;;17.67;3.63;;;13.20;99.90;;;;;;5076565;28;20484;-80
2022/05/21 05:02:51;;;;;;;23.70;4.15;;;13.20;99.90;;;;;;5059835;28;20052;-80
2022/05/21 05:05:17;;;;;;;22.83;4.20;;;13.20;99.90;;;;;;5075920;28;20052;-80
2022/05/21 05:07:43;;;;;;;19.88;4.13;;;13.20;99.90;;;;;;5059640;28;20055;-80
2022/05/21 05:10:09;;;;;;;16.95;3.92;;;13.30;99.90;;;;;;5060051;28;20052;-80
2022/05/21 05:12:35;;;;;;;21.75;3.88;;;13.30;99.90;;;;;;5059814;28;20044;-80
2022/05/21 05:15:01;;;;;;;17.73;3.75;;;13.40;99.90;;;;;;5076627;28;20094;-80
2022/05/21 05:17:27;;;;;;;20.77;3.70;;;13.40;99.90;;;;;;5076842;28;20040;-80
2022/05/21 05:19:54;;;;;;;15.10;4.05;;;13.40;99.90;;;;;;5076818;28;20420;-80
2022/05/21 05:22:21;;;;;;;19.92;3.92;;;13.40;99.90;;;;;;5059546;28;20040;-80
2022/05/21 05:24:46;;;;;;;21.08;4.00;;;13.40;99.90;;;;;;5076922;28;20040;-80
2022/05/21 05:27:12;;;;;;;23.63;4.25;;;13.50;99.90;;;;;;5059600;28;20553;-80
2022/05/21 05:48:35;;;;;;;19.55;3.50;;;13.70;99.90;;;;;;5035718;28;20037;-78
2022/05/21 06:06:40;;;;;;;18.30;3.30;;;13.90;99.90;;;;;;4957622;29;20026;-78
2022/05/21 06:17:54;;;;;;;20.67;3.75;;;14.00;99.90;;;;;;4903454;29;20142;-79
2022/05/21 14:55:25;;;;;;;6.50;1.50;;;20.40;88.20;;;;;;5073089;28;20067;-78
2022/05/21 14:57:51;;;;;;;7.97;1.70;;;20.40;90.30;;;;;;5075045;28;20076;-79
2022/05/21 15:00:19;;;;;;;7.60;1.52;;;20.30;87.00;;;;;;5058265;28;20072;-79
2022/05/21 15:02:45;;;;;;;5.95;1.58;;;20.20;87.70;;;;;;5074938;28;20127;-79
2022/05/21 15:05:11;;;;;;;9.68;1.65;;;20.10;88.10;;;;;;5058206;28;20135;-79
2022/05/21 15:07:40;;;;;;;8.13;1.70;;;20.00;87.60;;;;;;5074791;28;20045;-79
2022/05/21 15:10:07;;;;;;;6.80;1.40;;;19.90;88.90;;;;;;5061520;28;20048;-79
2022/05/21 15:12:36;;;;;;;7.00;1.27;;;19.70;85.40;;;;;;5061448;28;20044;-77
2022/05/21 15:15:02;;;;;;;8.95;1.40;;;19.70;86.40;;;;;;5061926;28;20044;-79
2022/05/21 15:17:27;;;;;;;6.00;1.20;;;19.60;89.70;;;;;;5062070;28;20078;-79
2022/05/21 15:19:53;;;;;;;5.80;1.17;;;19.60;89.10;;;;;;5062017;28;20504;-79
2022/05/21 15:22:21;;;;;;;8.13;1.70;;;19.70;90.60;;;;;;5078531;28;20086;-79
2022/05/21 15:24:47;;;;;;;6.15;1.60;;;19.70;90.80;;;;;;5078341;28;20080;-79
2022/05/21 15:27:12;;;;;;;7.88;1.70;;;19.40;91.10;;;;;;5061530;28;20051;-79
2022/05/21 15:29:40;;;;;;;6.28;1.58;;;19.40;91.40;;;;;;5078023;28;20044;-78
2022/05/21 15:32:06;;;;;;;6.05;1.40;;;19.20;92.60;;;;;;5061789;28;20044;-78
2022/05/21 15:34:32;;;;;;;6.05;1.63;;;19.10;90.80;;;;;;5078161;28;20447;-78
2022/05/21 15:36:58;;;;;;;10.25;2.03;;;19.00;92.20;;;;;;5077978;28;20040;-78
2022/05/21 15:39:24;;;;;;;9.82;2.00;;;19.10;94.90;;;;;;5061276;28;20090;-78
2022/05/21 15:41:49;;;;;;;9.32;1.83;;;19.10;94.50;;;;;;5077851;28;20052;-78
2022/05/21 15:44:15;;;;;;;7.28;1.98;;;19.20;96.40;;;;;;5061198;28;20051;-78
2022/05/21 15:46:41;;;;;;;6.20;1.65;;;19.40;96.70;;;;;;5061054;28;20051;-78
2022/05/21 15:49:07;;;;;;;9.02;1.65;;;19.40;96.40;;;;;;5077265;28;20043;-78
2022/05/21 15:51:35;;;;;;;8.70;1.77;;;19.40;94.50;;;;;;5060856;28;20119;-78
2022/05/21 15:54:01;;;;;;;7.18;1.60;;;19.30;94.40;;;;;;5077347;28;20500;-78
2022/05/21 15:56:26;;;;;;;5.45;1.30;;;19.30;93.50;;;;;;5077314;28;20055;-78
2022/05/21 15:58:52;;;;;;;7.97;1.40;;;19.20;92.70;;;;;;5077428;28;20058;-78
2022/05/21 16:01:20;;;;;;;8.77;1.95;;;19.10;95.10;;;;;;5060968;28;20048;-78
2022/05/21 16:03:49;;;;;;;9.38;1.55;;;18.90;94.60;;;;;;5060942;28;20051;-78
2022/05/21 16:06:15;;;;;;;7.57;1.50;;;18.70;96.00;;;;;;5060290;28;20040;-78
2022/05/21 16:08:41;;;;;;;8.73;1.60;;;18.60;97.60;;;;;;5077204;28;20131;-78
2022/05/21 16:11:08;;;;;;;8.30;1.98;;;18.60;97.70;;;;;;5060408;28;20101;-78
2022/05/21 16:13:35;;;;;;;6.10;1.55;;;18.60;98.50;;;;;;5077077;28;20052;-78
2022/05/21 16:16:01;;;;;;;8.57;1.70;;;18.60;96.50;;;;;;5060598;28;20039;-78
2022/05/21 16:18:27;;;;;;;9.88;1.60;;;18.50;96.60;;;;;;5060000;28;20048;-78
2022/05/21 16:20:53;;;;;;;11.98;2.10;;;18.50;98.20;;;;;;5060358;28;20044;-78
2022/05/21 16:23:20;;;;;;;9.10;1.60;;;18.40;99.60;;;;;;5076964;28;20051;-78
2022/05/21 16:25:46;;;;;;;10.30;2.25;;;18.40;99.50;;;;;;5060340;28;20048;-78
2022/05/21 16:28:12;;;;;;;10.07;1.95;;;18.40;98.60;;;;;;5059897;28;20050;-79
2022/05/21 16:30:37;;;;;;;9.63;1.80;;;18.30;98.60;;;;;;5059782;28;20040;-79
2022/05/21 16:33:03;;;;;;;10.65;1.40;;;18.30;98.90;;;;;;5076626;28;20043;-79
2022/05/21 16:35:29;;;;;;;10.82;1.95;;;18.20;98.80;;;;;;5076430;28;20516;-79
2022/05/21 16:37:54;;;;;;;6.28;1.60;;;18.00;98.80;;;;;;5076449;28;20098;-79
2022/05/21 16:40:20;;;;;;;8.65;2.00;;;17.80;99.00;;;;;;5076605;28;20094;-79
2022/05/21 16:42:46;;;;;;;8.90;1.35;;;17.80;99.20;;;;;;5076586;28;20062;-79
2022/05/21 16:45:15;;;;;;;10.80;1.90;;;17.70;99.90;;;;;;5076312;28;20048;-79
2022/05/21 16:47:40;;;;;;;9.32;1.98;;;17.60;99.90;;;;;;5059472;28;20084;-78
2022/05/21 16:50:07;;;;;;;7.43;1.80;;;17.70;99.90;;;;;;5059658;28;20083;-78
2022/05/21 16:52:33;;;;;;;7.88;1.48;;;17.70;99.90;;;;;;5076031;28;20047;-78
2022/05/21 16:54:58;;;;;;;9.05;1.50;;;17.70;99.90;;;;;;5059577;28;20044;-78
2022/05/21 16:57:24;;;;;;;6.05;1.55;;;17.60;99.90;;;;;;5059351;28;20040;-78
2022/05/21 16:59:50;;;;;;;7.95;2.00;;;17.60;99.90;;;;;;5075247;28;20044;-78
2022/05/21 17:02:15;;;;;;;6.63;1.27;;;17.50;99.90;;;;;;5076935;28;20039;-78
2022/05/21 17:04:42;;;;;;;9.18;1.50;;;17.50;99.90;;;;;;5059206;28;20523;-78
2022/05/21 17:07:08;;;;;;;5.60;1.25;;;17.40;99.90;;;;;;5059552;28;20052;-78
2022/05/21 17:09:35;;;;;;;8.07;1.20;;;17.30;98.80;;;;;;5075979;28;20113;-78
2022/05/21 17:12:00;;;;;;;6.97;1.50;;;17.20;99.80;;;;;;5075830;28;20051;-78
2022/05/21 17:14:26;;;;;;;5.88;1.52;;;17.10;99.20;;;;;;5059182;28;20386;-78
2022/05/21 17:16:52;;;;;;;8.15;1.50;;;17.10;99.80;;;;;;5059295;28;20032;-78
2022/05/21 17:19:18;;;;;;;4.95;1.13;;;17.10;99.90;;;;;;5075706;28;20583;-78
2022/05/21 17:21:56;;;;;;;9.68;1.70;;;17.00;99.90;;;;;;5075873;28;20048;-78
2022/05/21 17:24:21;;;;;;;7.47;1.50;;;17.00;99.90;;;;;;5059041;28;20047;-78
2022/05/21 17:26:47;;;;;;;7.97;1.50;;;17.00;99.90;;;;;;5058994;28;20409;-78
2022/05/21 17:31:57;;;;;;;9.52;1.90;;;16.80;99.90;;;;;;5079421;28;20500;-80
2022/05/21 17:34:24;;;;;;;6.45;1.65;;;16.80;99.90;;;;;;5062343;28;20055;-80
2022/05/21 17:36:50;;;;;;;10.68;2.33;;;16.70;99.90;;;;;;5062070;28;20144;-80
2022/05/21 17:39:16;;;;;;;7.93;1.80;;;16.70;99.90;;;;;;5061961;28;20076;-80
2022/05/21 17:41:42;;;;;;;6.75;1.45;;;16.70;99.90;;;;;;5079350;28;20044;-80
2022/05/21 17:44:07;;;;;;;8.68;1.88;;;16.70;99.90;;;;;;5079597;28;20102;-79
2022/05/21 17:46:34;;;;;;;8.60;1.90;;;16.70;99.90;;;;;;5060230;28;20088;-79
2022/05/21 17:49:00;;;;;;;11.75;1.92;;;16.60;99.90;;;;;;5059598;28;20101;-79
2022/05/21 17:51:27;;;;;;;6.60;1.77;;;16.60;99.90;;;;;;5059260;28;20479;-79
2022/05/21 17:53:56;;;;;;;7.38;1.70;;;16.60;99.90;;;;;;5058960;28;20047;-80
2022/05/21 17:56:22;;;;;;;9.43;1.65;;;16.60;99.90;;;;;;5059342;28;20048;-80
2022/05/21 17:58:50;;;;;;;8.48;1.63;;;16.60;99.90;;;;;;5076109;28;20044;-80
2022/05/21 18:01:20;;;;;;;6.97;1.60;;;16.60;99.90;;;;;;5076186;28;20048;-80
2022/05/21 18:03:46;;;;;;;9.57;1.35;;;16.60;99.90;;;;;;5075553;28;20044;-80
2022/05/21 18:06:12;;;;;;;8.98;2.22;;;16.60;99.90;;;;;;5075778;28;20106;-80
2022/05/21 18:08:38;;;;;;;6.50;1.80;;;16.50;99.90;;;;;;5076135;28;20044;-80
2022/05/21 18:11:04;;;;;;;10.23;1.60;;;16.50;99.90;;;;;;5076687;28;20048;-80
2022/05/21 18:13:30;;;;;;;9.85;1.65;;;16.50;99.90;;;;;;5079842;28;20535;-80
2022/05/21 18:21:25;;;;;;;12.23;2.08;;;16.50;99.90;;;;;;5079538;28;20122;-79
2022/05/21 18:23:51;;;;;;;7.80;1.85;;;16.40;99.90;;;;;;5079487;28;20419;-79
2022/05/21 18:26:22;;;;;;;10.43;1.80;;;16.40;99.90;;;;;;5079538;28;20098;-79
2022/05/21 18:28:48;;;;;;;11.23;1.90;;;16.40;99.90;;;;;;5079726;28;20447;-79
2022/05/21 18:31:15;;;;;;;8.95;1.92;;;16.30;99.90;;;;;;5079569;28;20044;-79
2022/05/21 18:33:44;;;;;;;12.18;2.25;;;16.30;99.90;;;;;;5079409;28;20048;-79
2022/05/21 18:36:10;;;;;;;9.77;2.00;;;16.30;99.90;;;;;;5079411;28;20036;-79
2022/05/21 18:38:36;;;;;;;8.80;2.00;;;16.20;99.90;;;;;;5079225;28;20530;-79
2022/05/21 18:41:09;;;;;;;11.13;2.03;;;16.20;99.90;;;;;;5079108;28;20048;-79
2022/05/21 18:43:37;;;;;;;12.18;2.22;;;16.20;99.90;;;;;;5080413;28;20052;-79
2022/05/21 18:46:03;;;;;;;13.40;2.40;;;16.10;99.90;;;;;;5062438;28;20059;-79
2022/05/21 18:48:30;;;;;;;8.60;1.85;;;16.10;99.90;;;;;;5079330;28;20044;-79
2022/05/21 18:50:58;;;;;;;9.55;1.95;;;16.00;99.90;;;;;;5062536;28;20490;-79
2022/05/21 18:53:25;;;;;;;10.95;2.58;;;16.00;99.90;;;;;;5078694;28;20470;-79
2022/05/21 18:55:51;;;;;;;9.00;2.50;;;16.00;99.90;;;;;;5062155;28;20036;-79
2022/05/21 18:58:16;;;;;;;17.25;2.72;;;16.00;99.90;;;;;;5062491;28;20039;-79
2022/05/21 19:00:50;;;;;;;13.10;2.60;;;16.00;99.90;;;;;;5062006;28;20574;-79
2022/05/21 19:03:20;;;;;;;14.32;2.50;;;16.00;99.90;;;;;;5078605;28;20432;-79
2022/05/21 19:05:46;;;;;;;11.75;2.35;;;16.00;99.90;;;;;;5061853;28;20087;-79
2022/05/21 19:08:15;;;;;;;9.88;2.60;;;15.90;99.90;;;;;;5078511;28;20055;-79
2022/05/21 19:10:43;;;;;;;11.23;2.33;;;15.90;99.90;;;;;;5078313;28;20036;-79
2022/05/21 19:13:08;;;;;;;11.40;2.72;;;15.90;99.90;;;;;;5078412;28;20090;-79
2022/05/21 19:15:35;;;;;;;13.10;2.40;;;15.80;99.90;;;;;;5078341;28;20071;-79
2022/05/21 19:18:01;;;;;;;9.98;2.17;;;15.80;99.90;;;;;;5062007;28;20047;-79
2022/05/21 19:20:27;;;;;;;13.35;2.40;;;15.70;99.90;;;;;;5061434;28;20048;-79
2022/05/21 19:22:52;;;;;;;10.60;2.45;;;15.70;99.90;;;;;;5077480;28;20052;-79
2022/05/21 19:25:18;;;;;;;14.10;2.60;;;15.70;99.90;;;;;;5078359;28;20040;-79
2022/05/21 19:27:44;;;;;;;9.55;2.42;;;15.70;99.90;;;;;;5078212;28;20105;-79
2022/05/21 19:30:10;;;;;;;8.90;2.45;;;15.60;99.90;;;;;;5078126;28;20040;-79
2022/05/21 19:32:35;;;;;;;9.02;2.33;;;15.60;99.90;;;;;;5061215;28;20500;-79
2022/05/21 19:35:02;;;;;;;13.25;2.25;;;15.60;99.90;;;;;;5078145;28;20135;-79
2022/05/21 19:37:27;;;;;;;10.52;2.88;;;15.50;99.90;;;;;;5078133;28;20048;-79
2022/05/21 19:42:37;;;;;;;12.95;2.65;;;15.40;99.90;;;;;;5077960;28;20047;-79
2022/05/21 19:45:04;;;;;;;11.93;2.10;;;15.30;99.90;;;;;;5061687;28;20048;-78
2022/05/21 19:47:30;;;;;;;13.13;2.42;;;15.30;99.90;;;;;;5061284;28;20450;-79
2022/05/21 19:49:58;;;;;;;13.57;3.10;;;15.20;99.90;;;;;;5077770;28;20040;-79
2022/05/21 19:52:24;;;;;;;11.30;2.30;;;15.20;99.90;;;;;;5077713;28;20050;-79
2022/05/21 19:54:50;;;;;;;11.32;2.42;;;15.20;99.90;;;;;;5077885;28;20044;-79
2022/05/21 19:57:18;;;;;;;11.32;2.53;;;15.10;99.90;;;;;;5077702;28;20498;-79
2022/05/21 19:59:44;;;;;;;9.98;2.78;;;15.00;99.90;;;;;;5077506;28;20087;-79
2022/05/21 20:02:13;;;;;;;14.63;2.55;;;15.00;99.90;;;;;;5078004;28;20088;-79
2022/05/21 20:04:38;;;;;;;8.43;1.95;;;15.00;99.90;;;;;;5060653;28;20047;-79
2022/05/21 20:07:04;;;;;;;12.07;2.65;;;14.90;99.90;;;;;;5060890;28;20043;-79
2022/05/21 20:09:30;;;;;;;10.50;2.30;;;14.90;99.90;;;;;;5060966;28;20097;-79
2022/05/21 20:11:56;;;;;;;10.82;2.30;;;14.80;99.90;;;;;;5060906;28;20048;-79
2022/05/21 20:14:22;;;;;;;12.15;2.70;;;14.80;99.90;;;;;;5077278;28;20040;-79
2022/05/21 20:16:47;;;;;;;14.25;2.60;;;14.70;99.90;;;;;;5077120;28;20044;-79
2022/05/21 20:19:16;;;;;;;12.38;2.60;;;14.60;99.90;;;;;;5077457;28;20094;-79
2022/05/21 20:21:43;;;;;;;9.95;2.30;;;14.60;99.90;;;;;;5077611;28;20112;-79
2022/05/21 20:24:11;;;;;;;9.90;2.22;;;14.50;99.90;;;;;;5077159;28;20467;-79
2022/05/21 20:26:36;;;;;;;12.23;2.70;;;14.50;99.90;;;;;;5077382;28;20133;-79
2022/05/21 20:29:04;;;;;;;11.43;2.53;;;14.40;99.90;;;;;;5060760;28;20059;-79
2022/05/21 20:31:31;;;;;;;15.82;3.03;;;14.40;99.90;;;;;;5076827;28;20106;-79
2022/05/21 20:33:58;;;;;;;12.57;2.63;;;14.30;99.90;;;;;;5060371;28;20048;-79
2022/05/21 20:36:24;;;;;;;10.65;2.92;;;14.30;99.90;;;;;;5077093;28;20478;-79
2022/05/21 20:38:49;;;;;;;10.77;2.83;;;14.20;99.90;;;;;;5077106;28;20508;-79
2022/05/21 20:41:15;;;;;;;12.60;2.88;;;14.10;99.90;;;;;;5077031;28;20043;-79
2022/05/21 20:43:41;;;;;;;9.05;2.70;;;14.10;99.90;;;;;;5060406;28;20055;-79
2022/05/21 20:46:06;;;;;;;11.35;2.58;;;14.10;99.90;;;;;;5076700;28;20412;-79
2022/05/21 20:51:16;;;;;;;15.27;3.17;;;13.90;99.90;;;;;;5076608;28;20043;-79
2022/05/21 20:53:42;;;;;;;10.85;2.83;;;13.90;99.90;;;;;;5076248;28;20066;-79
2022/05/21 20:56:08;;;;;;;12.25;2.80;;;13.80;99.90;;;;;;5060054;28;20040;-79
2022/05/21 20:58:34;;;;;;;11.65;2.78;;;13.80;99.90;;;;;;5060155;28;20067;-79
2022/05/21 21:01:00;;;;;;;9.50;2.30;;;13.70;99.90;;;;;;5076471;28;20040;-79
2022/05/21 21:03:26;;;;;;;12.25;2.78;;;13.60;99.90;;;;;;5076719;28;20051;-79
2022/05/21 21:05:52;;;;;;;12.52;2.90;;;13.60;99.90;;;;;;5060293;28;20048;-79
2022/05/21 21:08:19;;;;;;;9.77;2.75;;;13.50;99.90;;;;;;5076539;28;20131;-79
2022/05/21 21:10:46;;;;;;;9.68;2.47;;;13.50;99.90;;;;;;5059552;28;20122;-79
2022/05/21 21:13:12;;;;;;;13.10;2.80;;;13.40;99.90;;;;;;5076282;28;20079;-79
2022/05/21 21:15:37;;;;;;;12.60;2.90;;;13.40;99.90;;;;;;5059531;28;20040;-79
2022/05/21 21:18:03;;;;;;;14.95;2.92;;;13.40;99.90;;;;;;5059456;28;20098;-79
2022/05/21 21:20:29;;;;;;;9.60;2.70;;;13.30;99.90;;;;;;5076138;28;20052;-79
2022/05/21 21:22:55;;;;;;;6.43;2.33;;;13.30;99.90;;;;;;5059583;28;20618;-79
2022/05/21 21:25:21;;;;;;;10.85;2.80;;;13.20;99.90;;;;;;5059356;28;20083;-79
2022/05/21 21:27:47;;;;;;;14.30;3.20;;;13.20;99.90;;;;;;5076102;28;20411;-79
2022/05/21 21:30:18;;;;;;;7.45;2.78;;;13.20;99.90;;;;;;5076348;28;20069;-79
2022/05/21 21:32:44;;;;;;;13.15;4.13;;;13.20;99.90;;;;;;5076170;28;20044;-79
2022/05/21 21:35:09;;;;;;;18.58;9.55;;;13.20;99.90;;;;;;5075955;28;20047;-79
2022/05/21 21:37:35;;;;;;;31.52;18.33;;;13.10;99.90;;;;;;5076194;28;20068;-79
2022/05/21 21:40:04;;;;;;;31.88;18.73;;;13.10;99.90;;;;;;5075972;28;20505;-79
2022/05/21 21:42:29;;;;;;;28.05;15.75;;;13.10;99.90;;;;;;5059439;28;20086;-79
2022/05/21 21:44:55;;;;;;;17.83;7.57;;;13.00;99.90;;;;;;5059298;28;20055;-79
2022/05/21 21:47:21;;;;;;;16.73;6.97;;;12.90;99.90;;;;;;5075401;28;20056;-79
2022/05/21 21:49:47;;;;;;;16.75;6.85;;;12.90;99.90;;;;;;5059300;28;20047;-79
2022/05/21 21:52:13;;;;;;;16.35;7.05;;;12.80;99.90;;;;;;5075689;28;20044;-79
2022/05/21 21:54:38;;;;;;;19.45;6.65;;;12.80;99.90;;;;;;5059138;28;20036;-79
2022/05/21 21:57:04;;;;;;;18.67;7.40;;;12.70;99.90;;;;;;5076002;28;20087;-79
2022/05/21 22:02:14;;;;;;;15.50;7.10;;;12.70;99.90;;;;;;5075677;28;20415;-79
2022/05/21 22:04:40;;;;;;;16.55;7.50;;;12.60;99.90;;;;;;5058820;28;20111;-79
2022/05/21 22:07:07;;;;;;;16.35;6.47;;;12.60;99.90;;;;;;5059056;28;20043;-79
2022/05/21 22:09:34;;;;;;;16.45;6.13;;;12.60;99.90;;;;;;5075851;28;20048;-79
2022/05/21 22:12:00;;;;;;;13.95;5.38;;;12.50;99.90;;;;;;5058932;28;20508;-79
2022/05/21 22:14:26;;;;;;;14.25;7.22;;;12.50;99.90;;;;;;5075838;28;20071;-79
2022/05/21 22:16:52;;;;;;;18.35;7.63;;;12.40;99.90;;;;;;5075876;28;20044;-79
2022/05/21 22:19:18;;;;;;;16.00;8.90;;;12.40;99.90;;;;;;5075510;28;20090;-79
2022/05/21 22:21:47;;;;;;;22.02;12.23;;;12.40;99.90;;;;;;5058875;28;20452;-79